This is the latest recevied weather packets stored in our database for station/object K7AZM. If no packets are shown the sender has not sent any weather packets the latest 10 day(s).
| Time | Temp. | Humidity | Pressure | Rain* | Wind** | Luminosity | Snow |
|---|---|---|---|---|---|---|---|
| 1777799424 | 22.22° C | 27% | 1012.5 hPa | 0 mm | - | - | - |
| 1777799123 | 22.22° C | 27% | 1012.5 hPa | 0 mm | - | - | - |
| 1777797666 | 22.78° C | 26% | 1012.5 hPa | 0 mm | - | - | - |
| 1777794323 | 22.78° C | 26% | 1012.8 hPa | 0 mm | - | - | - |
| 1777792223 | 22.22° C | 26% | 1012.6 hPa | 0 mm | - | - | - |
| 1777787425 | 23.89° C | 24% | 1012.2 hPa | 0 mm | - | - | - |
| 1777779944 | 26.11° C | 21% | 1011.4 hPa | 0 mm | - | - | - |
| 1777779623 | 26.67° C | 20% | 1011.3 hPa | 0 mm | - | - | - |
| 1777779323 | 27.22° C | 19% | 1011.2 hPa | 0 mm | - | - | - |
| 1777779046 | 27.22° C | 19% | 1011.1 hPa | 0 mm | - | - | - |
| 1777778123 | 27.22° C | 19% | 1011.1 hPa | 0 mm | - | - | - |
| 1777774222 | 30° C | 15% | 1010.8 hPa | 0 mm | - | - | - |
| 1777773325 | 30.56° C | 14% | 1010.8 hPa | 0 mm | - | - | - |
| 1777771824 | 31.11° C | 14% | 1010.9 hPa | 0 mm | - | - | - |
| 1777771224 | 31.67° C | 14% | 1010.9 hPa | 0 mm | - | - | - |
| 1777768523 | 32.22° C | 14% | 1011.1 hPa | 0 mm | - | - | - |
| 1777767043 | 32.78° C | 15% | 1011.2 hPa | 0 mm | - | - | - |
| 1777765543 | 32.78° C | 15% | 1011.2 hPa | 0 mm | - | - | - |
| 1777764045 | 33.89° C | 14% | 1011.5 hPa | 0 mm | - | - | - |
| 1777759224 | 32.22° C | 15% | 1012.2 hPa | 0 mm | - | - | - |
| 1777758623 | 32.22° C | 15% | 1012.4 hPa | 0 mm | - | - | - |
| 1777758323 | 32.78° C | 14% | 1012.7 hPa | 0 mm | - | - | - |
| 1777756825 | 32.78° C | 14% | 1013.2 hPa | 0 mm | - | - | - |
| 1777755623 | 32.78° C | 13% | 1013.6 hPa | 0 mm | - | - | - |
| 1777754725 | 32.78° C | 14% | 1013.9 hPa | 0 mm | - | - | - |
* Rain latest hour (hover to see other rain measurements)
** Current wind speed in m/s (hover to see current wind gust speed)